sensor_id;sensor_type;location;lat;lon;timestamp;P1;P2;P0
61592;PMS5003;70568;51.378;-1.342;2023-07-31T00:02:23;2;1;
61592;PMS5003;70568;51.378;-1.342;2023-07-31T00:04:49;1;1;
61592;PMS5003;70568;51.378;-1.342;2023-07-31T00:07:16;2;1;
61592;PMS5003;70568;51.378;-1.342;2023-07-31T00:09:42;1;1;
61592;PMS5003;70568;51.378;-1.342;2023-07-31T00:12:09;0;0;
61592;PMS5003;70568;51.378;-1.342;2023-07-31T00:14:35;2;1;
61592;PMS5003;70568;51.378;-1.342;2023-07-31T00:17:02;1;1;
61592;PMS5003;70568;51.378;-1.342;2023-07-31T00:19:29;1;0;
61592;PMS5003;70568;51.378;-1.342;2023-07-31T00:21:55;1;0;
61592;PMS5003;70568;51.378;-1.342;2023-07-31T00:24:21;1;0;
61592;PMS5003;70568;51.378;-1.342;2023-07-31T00:26:48;1;1;
61592;PMS5003;70568;51.378;-1.342;2023-07-31T00:29:14;1;1;
61592;PMS5003;70568;51.378;-1.342;2023-07-31T00:31:41;0;0;
61592;PMS5003;70568;51.378;-1.342;2023-07-31T00:34:07;1;1;
61592;PMS5003;70568;51.378;-1.342;2023-07-31T00:36:34;4;3;
61592;PMS5003;70568;51.378;-1.342;2023-07-31T00:39:00;0;0;
61592;PMS5003;70568;51.378;-1.342;2023-07-31T00:41:27;1;1;
61592;PMS5003;70568;51.378;-1.342;2023-07-31T00:43:53;1;1;
61592;PMS5003;70568;51.378;-1.342;2023-07-31T00:46:20;0;0;
61592;PMS5003;70568;51.378;-1.342;2023-07-31T00:48:47;1;1;
61592;PMS5003;70568;51.378;-1.342;2023-07-31T00:51:14;0;0;
61592;PMS5003;70568;51.378;-1.342;2023-07-31T00:53:42;2;2;
61592;PMS5003;70568;51.378;-1.342;2023-07-31T00:56:09;2;2;
61592;PMS5003;70568;51.378;-1.342;2023-07-31T00:58:37;1;1;
61592;PMS5003;70568;51.378;-1.342;2023-07-31T01:01:03;2;2;
61592;PMS5003;70568;51.378;-1.342;2023-07-31T01:03:30;3;2;
61592;PMS5003;70568;51.378;-1.342;2023-07-31T01:06:00;3;3;
61592;PMS5003;70568;51.378;-1.342;2023-07-31T01:08:37;5;4;
61592;PMS5003;70568;51.378;-1.342;2023-07-31T01:11:10;3;3;
61592;PMS5003;70568;51.378;-1.342;2023-07-31T01:13:42;3;3;
61592;PMS5003;70568;51.378;-1.342;2023-07-31T01:16:08;3;3;
61592;PMS5003;70568;51.378;-1.342;2023-07-31T01:18:35;2;2;
61592;PMS5003;70568;51.378;-1.342;2023-07-31T01:21:03;4;3;
61592;PMS5003;70568;51.378;-1.342;2023-07-31T01:23:48;3;1;
61592;PMS5003;70568;51.378;-1.342;2023-07-31T01:26:28;1;1;
61592;PMS5003;70568;51.378;-1.342;2023-07-31T01:29:00;3;3;
61592;PMS5003;70568;51.378;-1.342;2023-07-31T01:31:29;2;2;
61592;PMS5003;70568;51.378;-1.342;2023-07-31T01:33:59;4;3;
61592;PMS5003;70568;51.378;-1.342;2023-07-31T01:36:27;1;1;
61592;PMS5003;70568;51.378;-1.342;2023-07-31T01:38:57;3;3;
61592;PMS5003;70568;51.378;-1.342;2023-07-31T01:41:25;1;1;
61592;PMS5003;70568;51.378;-1.342;2023-07-31T01:43:52;3;3;
61592;PMS5003;70568;51.378;-1.342;2023-07-31T01:46:18;2;2;
61592;PMS5003;70568;51.378;-1.342;2023-07-31T01:48:45;2;1;
61592;PMS5003;70568;51.378;-1.342;2023-07-31T01:51:11;3;3;
61592;PMS5003;70568;51.378;-1.342;2023-07-31T01:53:39;3;3;
61592;PMS5003;70568;51.378;-1.342;2023-07-31T01:56:06;4;2;
61592;PMS5003;70568;51.378;-1.342;2023-07-31T01:58:32;2;2;
61592;PMS5003;70568;51.378;-1.342;2023-07-31T02:00:58;2;2;
61592;PMS5003;70568;51.378;-1.342;2023-07-31T02:03:25;1;1;
61592;PMS5003;70568;51.378;-1.342;2023-07-31T02:05:51;1;1;
61592;PMS5003;70568;51.378;-1.342;2023-07-31T02:08:20;3;3;
61592;PMS5003;70568;51.378;-1.342;2023-07-31T02:10:47;4;3;
61592;PMS5003;70568;51.378;-1.342;2023-07-31T02:13:13;3;3;
61592;PMS5003;70568;51.378;-1.342;2023-07-31T02:15:40;3;3;
61592;PMS5003;70568;51.378;-1.342;2023-07-31T02:18:07;3;3;
61592;PMS5003;70568;51.378;-1.342;2023-07-31T02:20:34;4;4;
61592;PMS5003;70568;51.378;-1.342;2023-07-31T02:23:01;2;2;
61592;PMS5003;70568;51.378;-1.342;2023-07-31T02:25:27;3;3;
61592;PMS5003;70568;51.378;-1.342;2023-07-31T02:27:54;3;2;
61592;PMS5003;70568;51.378;-1.342;2023-07-31T02:30:20;7;7;
61592;PMS5003;70568;51.378;-1.342;2023-07-31T02:32:46;3;2;
61592;PMS5003;70568;51.378;-1.342;2023-07-31T02:35:13;4;3;
61592;PMS5003;70568;51.378;-1.342;2023-07-31T02:37:40;2;2;
61592;PMS5003;70568;51.378;-1.342;2023-07-31T02:40:09;2;2;
61592;PMS5003;70568;51.378;-1.342;2023-07-31T02:42:36;3;3;
61592;PMS5003;70568;51.378;-1.342;2023-07-31T02:45:02;5;3;
61592;PMS5003;70568;51.378;-1.342;2023-07-31T02:47:29;1;1;
61592;PMS5003;70568;51.378;-1.342;2023-07-31T02:49:56;3;3;
61592;PMS5003;70568;51.378;-1.342;2023-07-31T02:52:22;2;2;
61592;PMS5003;70568;51.378;-1.342;2023-07-31T02:54:48;2;2;
61592;PMS5003;70568;51.378;-1.342;2023-07-31T02:57:15;3;2;
61592;PMS5003;70568;51.378;-1.342;2023-07-31T02:59:41;4;2;
61592;PMS5003;70568;51.378;-1.342;2023-07-31T03:02:08;0;0;
61592;PMS5003;70568;51.378;-1.342;2023-07-31T03:04:34;4;4;
61592;PMS5003;70568;51.378;-1.342;2023-07-31T03:07:00;2;2;
61592;PMS5003;70568;51.378;-1.342;2023-07-31T03:09:27;4;3;
61592;PMS5003;70568;51.378;-1.342;2023-07-31T03:11:53;3;2;
61592;PMS5003;70568;51.378;-1.342;2023-07-31T03:14:19;2;2;
61592;PMS5003;70568;51.378;-1.342;2023-07-31T03:16:47;0;0;
61592;PMS5003;70568;51.378;-1.342;2023-07-31T03:19:14;3;3;
61592;PMS5003;70568;51.378;-1.342;2023-07-31T03:21:41;1;1;
61592;PMS5003;70568;51.378;-1.342;2023-07-31T03:24:08;1;1;
61592;PMS5003;70568;51.378;-1.342;2023-07-31T03:26:35;3;2;
61592;PMS5003;70568;51.378;-1.342;2023-07-31T03:29:02;2;2;
61592;PMS5003;70568;51.378;-1.342;2023-07-31T03:31:28;2;1;
61592;PMS5003;70568;51.378;-1.342;2023-07-31T03:33:55;0;0;
61592;PMS5003;70568;51.378;-1.342;2023-07-31T03:36:22;2;2;
61592;PMS5003;70568;51.378;-1.342;2023-07-31T03:38:50;4;3;
61592;PMS5003;70568;51.378;-1.342;2023-07-31T03:41:17;0;0;
61592;PMS5003;70568;51.378;-1.342;2023-07-31T03:43:45;1;1;
61592;PMS5003;70568;51.378;-1.342;2023-07-31T03:46:13;1;1;
61592;PMS5003;70568;51.378;-1.342;2023-07-31T03:48:40;2;1;
61592;PMS5003;70568;51.378;-1.342;2023-07-31T03:51:06;2;2;
61592;PMS5003;70568;51.378;-1.342;2023-07-31T03:53:33;2;2;
61592;PMS5003;70568;51.378;-1.342;2023-07-31T03:55:59;1;1;
61592;PMS5003;70568;51.378;-1.342;2023-07-31T03:58:25;3;2;
61592;PMS5003;70568;51.378;-1.342;2023-07-31T04:00:52;0;0;
61592;PMS5003;70568;51.378;-1.342;2023-07-31T04:03:19;1;1;
61592;PMS5003;70568;51.378;-1.342;2023-07-31T04:05:45;1;1;
61592;PMS5003;70568;51.378;-1.342;2023-07-31T04:08:12;1;1;
61592;PMS5003;70568;51.378;-1.342;2023-07-31T04:10:40;1;1;
61592;PMS5003;70568;51.378;-1.342;2023-07-31T04:13:07;1;1;
61592;PMS5003;70568;51.378;-1.342;2023-07-31T04:15:34;1;1;
61592;PMS5003;70568;51.378;-1.342;2023-07-31T04:18:00;1;1;
61592;PMS5003;70568;51.378;-1.342;2023-07-31T04:20:26;1;1;
61592;PMS5003;70568;51.378;-1.342;2023-07-31T04:22:53;1;1;
61592;PMS5003;70568;51.378;-1.342;2023-07-31T04:25:19;0;0;
61592;PMS5003;70568;51.378;-1.342;2023-07-31T04:27:45;0;0;
61592;PMS5003;70568;51.378;-1.342;2023-07-31T04:30:12;1;1;
61592;PMS5003;70568;51.378;-1.342;2023-07-31T04:32:40;2;2;
61592;PMS5003;70568;51.378;-1.342;2023-07-31T04:35:07;1;1;
61592;PMS5003;70568;51.378;-1.342;2023-07-31T04:37:34;0;0;
61592;PMS5003;70568;51.378;-1.342;2023-07-31T04:40:00;2;2;
61592;PMS5003;70568;51.378;-1.342;2023-07-31T04:42:26;0;0;
61592;PMS5003;70568;51.378;-1.342;2023-07-31T04:44:53;1;1;
61592;PMS5003;70568;51.378;-1.342;2023-07-31T04:47:20;4;2;
61592;PMS5003;70568;51.378;-1.342;2023-07-31T04:49:47;1;1;
61592;PMS5003;70568;51.378;-1.342;2023-07-31T04:52:13;2;1;
61592;PMS5003;70568;51.378;-1.342;2023-07-31T04:54:40;2;1;
61592;PMS5003;70568;51.378;-1.342;2023-07-31T04:57:07;2;1;
61592;PMS5003;70568;51.378;-1.342;2023-07-31T04:59:33;1;1;
61592;PMS5003;70568;51.378;-1.342;2023-07-31T05:01:59;1;1;
61592;PMS5003;70568;51.378;-1.342;2023-07-31T05:04:26;4;2;
61592;PMS5003;70568;51.378;-1.342;2023-07-31T05:06:52;1;1;
61592;PMS5003;70568;51.378;-1.342;2023-07-31T05:09:18;1;1;
61592;PMS5003;70568;51.378;-1.342;2023-07-31T05:11:45;1;1;
61592;PMS5003;70568;51.378;-1.342;2023-07-31T05:14:12;1;1;
61592;PMS5003;70568;51.378;-1.342;2023-07-31T05:16:39;0;0;
61592;PMS5003;70568;51.378;-1.342;2023-07-31T05:19:06;1;1;
61592;PMS5003;70568;51.378;-1.342;2023-07-31T05:21:32;1;1;
61592;PMS5003;70568;51.378;-1.342;2023-07-31T05:23:59;2;1;
61592;PMS5003;70568;51.378;-1.342;2023-07-31T05:26:25;2;2;
61592;PMS5003;70568;51.378;-1.342;2023-07-31T05:28:51;1;1;
61592;PMS5003;70568;51.378;-1.342;2023-07-31T05:31:18;1;1;
61592;PMS5003;70568;51.378;-1.342;2023-07-31T05:33:44;2;0;
61592;PMS5003;70568;51.378;-1.342;2023-07-31T05:36:11;1;1;
61592;PMS5003;70568;51.378;-1.342;2023-07-31T05:38:38;3;2;
61592;PMS5003;70568;51.378;-1.342;2023-07-31T05:41:05;0;0;
61592;PMS5003;70568;51.378;-1.342;2023-07-31T05:43:31;0;0;
61592;PMS5003;70568;51.378;-1.342;2023-07-31T05:45:58;1;1;
61592;PMS5003;70568;51.378;-1.342;2023-07-31T05:48:24;1;1;
61592;PMS5003;70568;51.378;-1.342;2023-07-31T05:50:50;1;1;
61592;PMS5003;70568;51.378;-1.342;2023-07-31T05:53:17;1;1;
61592;PMS5003;70568;51.378;-1.342;2023-07-31T05:55:43;1;1;
61592;PMS5003;70568;51.378;-1.342;2023-07-31T05:58:10;3;3;
61592;PMS5003;70568;51.378;-1.342;2023-07-31T06:00:37;1;1;
61592;PMS5003;70568;51.378;-1.342;2023-07-31T06:03:03;1;1;
61592;PMS5003;70568;51.378;-1.342;2023-07-31T06:05:30;1;1;
61592;PMS5003;70568;51.378;-1.342;2023-07-31T06:07:56;0;0;
61592;PMS5003;70568;51.378;-1.342;2023-07-31T06:10:23;0;0;
61592;PMS5003;70568;51.378;-1.342;2023-07-31T06:12:51;0;0;
61592;PMS5003;70568;51.378;-1.342;2023-07-31T06:15:17;0;0;
61592;PMS5003;70568;51.378;-1.342;2023-07-31T06:17:43;0;0;
61592;PMS5003;70568;51.378;-1.342;2023-07-31T06:20:10;0;0;
61592;PMS5003;70568;51.378;-1.342;2023-07-31T06:22:37;0;0;
61592;PMS5003;70568;51.378;-1.342;2023-07-31T06:25:04;0;0;
61592;PMS5003;70568;51.378;-1.342;2023-07-31T06:27:31;0;0;
61592;PMS5003;70568;51.378;-1.342;2023-07-31T06:29:57;0;0;
61592;PMS5003;70568;51.378;-1.342;2023-07-31T06:32:23;0;0;
61592;PMS5003;70568;51.378;-1.342;2023-07-31T06:34:51;0;0;
61592;PMS5003;70568;51.378;-1.342;2023-07-31T06:37:17;1;1;
61592;PMS5003;70568;51.378;-1.342;2023-07-31T06:39:43;1;1;
61592;PMS5003;70568;51.378;-1.342;2023-07-31T06:42:10;0;0;
61592;PMS5003;70568;51.378;-1.342;2023-07-31T06:44:37;1;1;
61592;PMS5003;70568;51.378;-1.342;2023-07-31T06:47:04;1;1;
61592;PMS5003;70568;51.378;-1.342;2023-07-31T06:49:31;2;2;
61592;PMS5003;70568;51.378;-1.342;2023-07-31T06:51:57;1;1;
61592;PMS5003;70568;51.378;-1.342;2023-07-31T06:54:23;3;3;
61592;PMS5003;70568;51.378;-1.342;2023-07-31T06:56:50;3;3;
61592;PMS5003;70568;51.378;-1.342;2023-07-31T06:59:16;1;1;
61592;PMS5003;70568;51.378;-1.342;2023-07-31T07:01:43;2;1;
61592;PMS5003;70568;51.378;-1.342;2023-07-31T07:04:09;3;3;
61592;PMS5003;70568;51.378;-1.342;2023-07-31T07:06:35;2;2;
61592;PMS5003;70568;51.378;-1.342;2023-07-31T07:09:02;3;3;
61592;PMS5003;70568;51.378;-1.342;2023-07-31T07:11:29;2;2;
61592;PMS5003;70568;51.378;-1.342;2023-07-31T07:13:56;3;3;
61592;PMS5003;70568;51.378;-1.342;2023-07-31T07:16:22;1;1;
61592;PMS5003;70568;51.378;-1.342;2023-07-31T07:18:49;3;3;
61592;PMS5003;70568;51.378;-1.342;2023-07-31T07:21:15;2;2;
61592;PMS5003;70568;51.378;-1.342;2023-07-31T07:23:42;2;2;
61592;PMS5003;70568;51.378;-1.342;2023-07-31T07:26:08;4;3;
61592;PMS5003;70568;51.378;-1.342;2023-07-31T07:28:35;3;2;
61592;PMS5003;70568;51.378;-1.342;2023-07-31T07:31:01;1;1;
61592;PMS5003;70568;51.378;-1.342;2023-07-31T07:33:27;6;5;
61592;PMS5003;70568;51.378;-1.342;2023-07-31T07:35:54;6;4;
61592;PMS5003;70568;51.378;-1.342;2023-07-31T07:38:20;2;2;
61592;PMS5003;70568;51.378;-1.342;2023-07-31T07:40:47;5;4;
61592;PMS5003;70568;51.378;-1.342;2023-07-31T07:43:14;4;4;
61592;PMS5003;70568;51.378;-1.342;2023-07-31T07:45:40;3;3;
61592;PMS5003;70568;51.378;-1.342;2023-07-31T07:48:07;3;2;
61592;PMS5003;70568;51.378;-1.342;2023-07-31T07:50:33;4;3;
61592;PMS5003;70568;51.378;-1.342;2023-07-31T07:52:59;6;4;
61592;PMS5003;70568;51.378;-1.342;2023-07-31T07:55:26;5;4;
61592;PMS5003;70568;51.378;-1.342;2023-07-31T07:57:52;4;4;
61592;PMS5003;70568;51.378;-1.342;2023-07-31T08:00:19;3;3;
61592;PMS5003;70568;51.378;-1.342;2023-07-31T08:02:46;3;2;
61592;PMS5003;70568;51.378;-1.342;2023-07-31T08:05:13;3;3;
61592;PMS5003;70568;51.378;-1.342;2023-07-31T08:07:40;3;3;
61592;PMS5003;70568;51.378;-1.342;2023-07-31T08:10:07;3;3;
61592;PMS5003;70568;51.378;-1.342;2023-07-31T08:12:34;2;2;
61592;PMS5003;70568;51.378;-1.342;2023-07-31T08:15:00;1;1;
61592;PMS5003;70568;51.378;-1.342;2023-07-31T08:17:28;2;2;
61592;PMS5003;70568;51.378;-1.342;2023-07-31T08:19:54;2;2;
61592;PMS5003;70568;51.378;-1.342;2023-07-31T08:22:21;3;3;
61592;PMS5003;70568;51.378;-1.342;2023-07-31T08:24:49;1;1;
61592;PMS5003;70568;51.378;-1.342;2023-07-31T08:27:15;1;0;
61592;PMS5003;70568;51.378;-1.342;2023-07-31T08:29:41;2;2;
61592;PMS5003;70568;51.378;-1.342;2023-07-31T08:32:08;2;1;
61592;PMS5003;70568;51.378;-1.342;2023-07-31T08:34:34;3;3;
61592;PMS5003;70568;51.378;-1.342;2023-07-31T08:37:01;2;1;
61592;PMS5003;70568;51.378;-1.342;2023-07-31T08:39:27;2;2;
61592;PMS5003;70568;51.378;-1.342;2023-07-31T08:41:57;2;2;
61592;PMS5003;70568;51.378;-1.342;2023-07-31T08:44:24;1;1;
61592;PMS5003;70568;51.378;-1.342;2023-07-31T08:46:51;1;1;
61592;PMS5003;70568;51.378;-1.342;2023-07-31T08:49:18;2;2;
61592;PMS5003;70568;51.378;-1.342;2023-07-31T08:51:48;2;2;
61592;PMS5003;70568;51.378;-1.342;2023-07-31T08:54:16;3;2;
61592;PMS5003;70568;51.378;-1.342;2023-07-31T08:56:44;1;1;
61592;PMS5003;70568;51.378;-1.342;2023-07-31T08:59:11;1;1;
61592;PMS5003;70568;51.378;-1.342;2023-07-31T09:01:41;2;2;
61592;PMS5003;70568;51.378;-1.342;2023-07-31T09:04:14;2;2;
61592;PMS5003;70568;51.378;-1.342;2023-07-31T09:06:45;2;2;
61592;PMS5003;70568;51.378;-1.342;2023-07-31T09:09:13;2;2;
61592;PMS5003;70568;51.378;-1.342;2023-07-31T09:11:40;3;1;
61592;PMS5003;70568;51.378;-1.342;2023-07-31T09:14:08;1;1;
61592;PMS5003;70568;51.378;-1.342;2023-07-31T09:16:36;1;1;
61592;PMS5003;70568;51.378;-1.342;2023-07-31T09:19:24;1;1;
61592;PMS5003;70568;51.378;-1.342;2023-07-31T09:21:51;2;2;
61592;PMS5003;70568;51.378;-1.342;2023-07-31T09:24:24;1;1;
61592;PMS5003;70568;51.378;-1.342;2023-07-31T09:26:53;1;1;
61592;PMS5003;70568;51.378;-1.342;2023-07-31T09:29:20;2;2;
61592;PMS5003;70568;51.378;-1.342;2023-07-31T09:31:46;1;1;
61592;PMS5003;70568;51.378;-1.342;2023-07-31T09:34:13;2;2;
61592;PMS5003;70568;51.378;-1.342;2023-07-31T09:36:40;0;0;
61592;PMS5003;70568;51.378;-1.342;2023-07-31T09:39:08;1;1;
61592;PMS5003;70568;51.378;-1.342;2023-07-31T09:41:39;0;0;
61592;PMS5003;70568;51.378;-1.342;2023-07-31T09:44:08;2;2;
61592;PMS5003;70568;51.378;-1.342;2023-07-31T09:46:34;1;1;
61592;PMS5003;70568;51.378;-1.342;2023-07-31T09:49:04;3;3;
61592;PMS5003;70568;51.378;-1.342;2023-07-31T09:51:32;2;2;
61592;PMS5003;70568;51.378;-1.342;2023-07-31T09:53:58;3;3;
61592;PMS5003;70568;51.378;-1.342;2023-07-31T09:56:27;2;2;
61592;PMS5003;70568;51.378;-1.342;2023-07-31T09:58:54;2;2;
61592;PMS5003;70568;51.378;-1.342;2023-07-31T10:01:22;3;3;
61592;PMS5003;70568;51.378;-1.342;2023-07-31T10:03:48;4;3;
61592;PMS5003;70568;51.378;-1.342;2023-07-31T10:06:16;3;3;
61592;PMS5003;70568;51.378;-1.342;2023-07-31T10:08:44;6;4;
61592;PMS5003;70568;51.378;-1.342;2023-07-31T10:11:14;5;5;
61592;PMS5003;70568;51.378;-1.342;2023-07-31T10:13:42;3;3;
61592;PMS5003;70568;51.378;-1.342;2023-07-31T10:16:10;3;3;
61592;PMS5003;70568;51.378;-1.342;2023-07-31T10:18:38;4;4;
61592;PMS5003;70568;51.378;-1.342;2023-07-31T10:21:06;4;4;
61592;PMS5003;70568;51.378;-1.342;2023-07-31T10:23:33;3;3;
61592;PMS5003;70568;51.378;-1.342;2023-07-31T10:26:00;5;5;
61592;PMS5003;70568;51.378;-1.342;2023-07-31T10:28:29;4;4;
61592;PMS5003;70568;51.378;-1.342;2023-07-31T10:30:56;6;5;
61592;PMS5003;70568;51.378;-1.342;2023-07-31T10:33:23;5;4;
61592;PMS5003;70568;51.378;-1.342;2023-07-31T10:35:50;6;5;
61592;PMS5003;70568;51.378;-1.342;2023-07-31T10:38:38;7;6;
61592;PMS5003;70568;51.378;-1.342;2023-07-31T10:41:07;6;6;
61592;PMS5003;70568;51.378;-1.342;2023-07-31T10:43:35;5;5;
61592;PMS5003;70568;51.378;-1.342;2023-07-31T10:46:06;3;3;
61592;PMS5003;70568;51.378;-1.342;2023-07-31T10:48:33;4;4;
61592;PMS5003;70568;51.378;-1.342;2023-07-31T10:51:01;5;4;
61592;PMS5003;70568;51.378;-1.342;2023-07-31T10:53:33;8;5;
61592;PMS5003;70568;51.378;-1.342;2023-07-31T10:56:00;5;4;
61592;PMS5003;70568;51.378;-1.342;2023-07-31T10:58:28;4;4;
61592;PMS5003;70568;51.378;-1.342;2023-07-31T11:00:55;5;4;
61592;PMS5003;70568;51.378;-1.342;2023-07-31T11:03:24;6;6;
61592;PMS5003;70568;51.378;-1.342;2023-07-31T11:05:52;3;3;
61592;PMS5003;70568;51.378;-1.342;2023-07-31T11:08:20;6;5;
61592;PMS5003;70568;51.378;-1.342;2023-07-31T11:10:49;5;5;
61592;PMS5003;70568;51.378;-1.342;2023-07-31T11:13:17;5;5;
61592;PMS5003;70568;51.378;-1.342;2023-07-31T11:15:44;3;3;
61592;PMS5003;70568;51.378;-1.342;2023-07-31T11:18:12;6;6;
61592;PMS5003;70568;51.378;-1.342;2023-07-31T11:20:39;5;5;
61592;PMS5003;70568;51.378;-1.342;2023-07-31T11:23:06;5;5;
61592;PMS5003;70568;51.378;-1.342;2023-07-31T11:25:35;6;6;
61592;PMS5003;70568;51.378;-1.342;2023-07-31T11:28:03;5;5;
61592;PMS5003;70568;51.378;-1.342;2023-07-31T11:30:31;7;7;
61592;PMS5003;70568;51.378;-1.342;2023-07-31T11:32:59;4;4;
61592;PMS5003;70568;51.378;-1.342;2023-07-31T11:35:27;6;5;
61592;PMS5003;70568;51.378;-1.342;2023-07-31T11:37:54;9;8;
61592;PMS5003;70568;51.378;-1.342;2023-07-31T11:40:21;8;7;
61592;PMS5003;70568;51.378;-1.342;2023-07-31T11:42:48;6;5;
61592;PMS5003;70568;51.378;-1.342;2023-07-31T11:45:14;7;6;
61592;PMS5003;70568;51.378;-1.342;2023-07-31T11:47:41;9;7;
61592;PMS5003;70568;51.378;-1.342;2023-07-31T11:50:10;9;7;
61592;PMS5003;70568;51.378;-1.342;2023-07-31T11:52:38;5;5;
61592;PMS5003;70568;51.378;-1.342;2023-07-31T11:55:08;7;7;
61592;PMS5003;70568;51.378;-1.342;2023-07-31T11:57:36;6;6;
61592;PMS5003;70568;51.378;-1.342;2023-07-31T12:00:06;5;5;
61592;PMS5003;70568;51.378;-1.342;2023-07-31T12:02:34;9;8;
61592;PMS5003;70568;51.378;-1.342;2023-07-31T12:05:02;11;8;
61592;PMS5003;70568;51.378;-1.342;2023-07-31T12:07:42;7;7;
61592;PMS5003;70568;51.378;-1.342;2023-07-31T12:10:12;8;6;
61592;PMS5003;70568;51.378;-1.342;2023-07-31T12:12:55;8;6;
61592;PMS5003;70568;51.378;-1.342;2023-07-31T12:15:22;7;6;
61592;PMS5003;70568;51.378;-1.342;2023-07-31T12:17:56;8;8;
61592;PMS5003;70568;51.378;-1.342;2023-07-31T12:20:23;10;9;
61592;PMS5003;70568;51.378;-1.342;2023-07-31T12:22:49;8;7;
61592;PMS5003;70568;51.378;-1.342;2023-07-31T12:25:15;7;7;
61592;PMS5003;70568;51.378;-1.342;2023-07-31T12:27:44;7;7;
61592;PMS5003;70568;51.378;-1.342;2023-07-31T12:30:25;8;8;
61592;PMS5003;70568;51.378;-1.342;2023-07-31T12:32:53;7;7;
61592;PMS5003;70568;51.378;-1.342;2023-07-31T12:35:20;11;9;
61592;PMS5003;70568;51.378;-1.342;2023-07-31T12:37:46;9;8;
61592;PMS5003;70568;51.378;-1.342;2023-07-31T12:40:14;7;6;
61592;PMS5003;70568;51.378;-1.342;2023-07-31T12:42:41;7;7;
61592;PMS5003;70568;51.378;-1.342;2023-07-31T12:45:08;10;9;
61592;PMS5003;70568;51.378;-1.342;2023-07-31T12:47:35;10;10;
61592;PMS5003;70568;51.378;-1.342;2023-07-31T12:50:02;8;8;
61592;PMS5003;70568;51.378;-1.342;2023-07-31T12:52:29;9;8;
61592;PMS5003;70568;51.378;-1.342;2023-07-31T12:54:56;7;7;
61592;PMS5003;70568;51.378;-1.342;2023-07-31T12:57:22;9;8;
61592;PMS5003;70568;51.378;-1.342;2023-07-31T12:59:49;12;9;
61592;PMS5003;70568;51.378;-1.342;2023-07-31T13:02:16;10;9;
61592;PMS5003;70568;51.378;-1.342;2023-07-31T13:04:43;8;8;
61592;PMS5003;70568;51.378;-1.342;2023-07-31T13:07:10;9;9;
61592;PMS5003;70568;51.378;-1.342;2023-07-31T13:09:37;8;8;
61592;PMS5003;70568;51.378;-1.342;2023-07-31T13:12:03;9;8;
61592;PMS5003;70568;51.378;-1.342;2023-07-31T13:14:31;9;8;
61592;PMS5003;70568;51.378;-1.342;2023-07-31T13:16:58;8;7;
61592;PMS5003;70568;51.378;-1.342;2023-07-31T13:19:25;13;11;
61592;PMS5003;70568;51.378;-1.342;2023-07-31T13:21:52;8;7;
61592;PMS5003;70568;51.378;-1.342;2023-07-31T13:24:18;10;9;
61592;PMS5003;70568;51.378;-1.342;2023-07-31T13:26:45;9;9;
61592;PMS5003;70568;51.378;-1.342;2023-07-31T13:29:11;9;8;
61592;PMS5003;70568;51.378;-1.342;2023-07-31T13:31:39;10;9;
61592;PMS5003;70568;51.378;-1.342;2023-07-31T13:34:05;8;8;
61592;PMS5003;70568;51.378;-1.342;2023-07-31T13:36:32;9;9;
61592;PMS5003;70568;51.378;-1.342;2023-07-31T13:38:58;10;10;
61592;PMS5003;70568;51.378;-1.342;2023-07-31T13:41:26;9;9;
61592;PMS5003;70568;51.378;-1.342;2023-07-31T13:43:52;10;9;
61592;PMS5003;70568;51.378;-1.342;2023-07-31T13:46:19;9;9;
61592;PMS5003;70568;51.378;-1.342;2023-07-31T13:48:46;9;8;
61592;PMS5003;70568;51.378;-1.342;2023-07-31T13:51:13;9;9;
61592;PMS5003;70568;51.378;-1.342;2023-07-31T13:53:40;12;12;
61592;PMS5003;70568;51.378;-1.342;2023-07-31T13:56:08;13;12;
61592;PMS5003;70568;51.378;-1.342;2023-07-31T13:58:34;11;10;
61592;PMS5003;70568;51.378;-1.342;2023-07-31T14:01:01;10;8;
61592;PMS5003;70568;51.378;-1.342;2023-07-31T14:03:28;9;9;
61592;PMS5003;70568;51.378;-1.342;2023-07-31T14:05:54;12;11;
61592;PMS5003;70568;51.378;-1.342;2023-07-31T14:08:21;11;11;
61592;PMS5003;70568;51.378;-1.342;2023-07-31T14:10:48;12;11;
61592;PMS5003;70568;51.378;-1.342;2023-07-31T14:13:14;10;10;
61592;PMS5003;70568;51.378;-1.342;2023-07-31T14:15:41;8;8;
61592;PMS5003;70568;51.378;-1.342;2023-07-31T14:18:08;8;7;
61592;PMS5003;70568;51.378;-1.342;2023-07-31T14:20:35;5;5;
61592;PMS5003;70568;51.378;-1.342;2023-07-31T14:23:03;10;9;
61592;PMS5003;70568;51.378;-1.342;2023-07-31T14:25:29;11;7;
61592;PMS5003;70568;51.378;-1.342;2023-07-31T14:27:55;12;10;
61592;PMS5003;70568;51.378;-1.342;2023-07-31T14:30:22;9;9;
61592;PMS5003;70568;51.378;-1.342;2023-07-31T14:32:49;9;9;
61592;PMS5003;70568;51.378;-1.342;2023-07-31T14:35:15;8;8;
61592;PMS5003;70568;51.378;-1.342;2023-07-31T14:37:43;9;9;
61592;PMS5003;70568;51.378;-1.342;2023-07-31T14:40:11;10;9;
61592;PMS5003;70568;51.378;-1.342;2023-07-31T14:42:39;7;7;
61592;PMS5003;70568;51.378;-1.342;2023-07-31T14:45:07;6;6;
61592;PMS5003;70568;51.378;-1.342;2023-07-31T14:47:34;8;8;
61592;PMS5003;70568;51.378;-1.342;2023-07-31T14:50:00;8;7;
61592;PMS5003;70568;51.378;-1.342;2023-07-31T14:52:27;10;9;
61592;PMS5003;70568;51.378;-1.342;2023-07-31T14:54:53;8;7;
61592;PMS5003;70568;51.378;-1.342;2023-07-31T14:57:20;8;7;
61592;PMS5003;70568;51.378;-1.342;2023-07-31T14:59:47;9;8;
61592;PMS5003;70568;51.378;-1.342;2023-07-31T15:02:14;9;8;
61592;PMS5003;70568;51.378;-1.342;2023-07-31T15:04:41;8;8;
61592;PMS5003;70568;51.378;-1.342;2023-07-31T15:07:08;8;8;
61592;PMS5003;70568;51.378;-1.342;2023-07-31T15:09:34;5;5;
61592;PMS5003;70568;51.378;-1.342;2023-07-31T15:12:01;8;7;
61592;PMS5003;70568;51.378;-1.342;2023-07-31T15:14:29;6;6;
61592;PMS5003;70568;51.378;-1.342;2023-07-31T15:16:55;6;6;
61592;PMS5003;70568;51.378;-1.342;2023-07-31T15:19:21;7;6;
61592;PMS5003;70568;51.378;-1.342;2023-07-31T15:21:49;5;5;
61592;PMS5003;70568;51.378;-1.342;2023-07-31T15:24:16;8;8;
61592;PMS5003;70568;51.378;-1.342;2023-07-31T15:26:42;7;7;
61592;PMS5003;70568;51.378;-1.342;2023-07-31T15:29:09;8;7;
61592;PMS5003;70568;51.378;-1.342;2023-07-31T15:31:35;8;8;
61592;PMS5003;70568;51.378;-1.342;2023-07-31T15:34:02;13;13;
61592;PMS5003;70568;51.378;-1.342;2023-07-31T15:36:29;10;8;
61592;PMS5003;70568;51.378;-1.342;2023-07-31T15:38:55;11;11;
61592;PMS5003;70568;51.378;-1.342;2023-07-31T15:41:22;9;7;
61592;PMS5003;70568;51.378;-1.342;2023-07-31T15:43:49;9;8;
61592;PMS5003;70568;51.378;-1.342;2023-07-31T15:46:15;10;10;
61592;PMS5003;70568;51.378;-1.342;2023-07-31T15:48:42;7;7;
61592;PMS5003;70568;51.378;-1.342;2023-07-31T15:51:10;6;6;
61592;PMS5003;70568;51.378;-1.342;2023-07-31T15:53:36;6;5;
61592;PMS5003;70568;51.378;-1.342;2023-07-31T15:56:03;5;5;
61592;PMS5003;70568;51.378;-1.342;2023-07-31T15:58:30;6;6;
61592;PMS5003;70568;51.378;-1.342;2023-07-31T16:00:57;7;7;
61592;PMS5003;70568;51.378;-1.342;2023-07-31T16:03:24;7;6;
61592;PMS5003;70568;51.378;-1.342;2023-07-31T16:05:50;8;8;
61592;PMS5003;70568;51.378;-1.342;2023-07-31T16:08:17;6;6;
61592;PMS5003;70568;51.378;-1.342;2023-07-31T16:10:43;4;4;
61592;PMS5003;70568;51.378;-1.342;2023-07-31T16:13:10;5;5;
61592;PMS5003;70568;51.378;-1.342;2023-07-31T16:15:37;7;6;
61592;PMS5003;70568;51.378;-1.342;2023-07-31T16:18:03;6;6;
61592;PMS5003;70568;51.378;-1.342;2023-07-31T16:20:29;9;8;
61592;PMS5003;70568;51.378;-1.342;2023-07-31T16:22:56;10;9;
61592;PMS5003;70568;51.378;-1.342;2023-07-31T16:25:22;8;7;
61592;PMS5003;70568;51.378;-1.342;2023-07-31T16:27:49;11;7;
61592;PMS5003;70568;51.378;-1.342;2023-07-31T16:30:15;9;8;
61592;PMS5003;70568;51.378;-1.342;2023-07-31T16:32:42;8;7;
61592;PMS5003;70568;51.378;-1.342;2023-07-31T16:35:08;7;7;